Time;durP1;ratioP1;P1;durP2;ratioP2;P2;SDS_P1;SDS_P2;PMS_P1;PMS_P2;Temp;Humidity;BMP_temperature;BMP_pressure;BME280_temperature;BME280_humidity;BME280_pressure;Samples;Min_cycle;Max_cycle;Signal;HPM_P1;HPM_P2
2024/01/29 00:02:15;;;;;;;5.28;3.15;;;;;;;;;;5036228;28;20025;-73
2024/01/29 00:05:01;;;;;;;7.55;2.63;;;;;;;;;;5037546;28;20021;-74
2024/01/29 00:07:46;;;;;;;5.60;3.13;;;;;;;;;;5037306;28;20032;-74
2024/01/29 00:10:32;;;;;;;4.63;3.25;;;;;;;;;;5037126;28;20030;-72
2024/01/29 00:13:18;;;;;;;4.32;2.67;;;;;;;;;;5036822;28;20029;-73
2024/01/29 00:16:08;;;;;;;4.85;3.72;;;;;;;;;;5021926;28;20402;-73
2024/01/29 00:18:54;;;;;;;4.95;3.10;;;;;;;;;;5036486;28;20023;-72
2024/01/29 00:21:39;;;;;;;6.25;3.22;;;;;;;;;;5036813;28;20033;-72
2024/01/29 00:24:25;;;;;;;8.07;3.42;;;;;;;;;;5021406;28;20104;-73
2024/01/29 00:27:13;;;;;;;9.07;3.40;;;;;;;;;;5021533;28;20035;-72
2024/01/29 00:30:01;;;;;;;4.28;2.55;;;;;;;;;;5036695;28;20025;-73
2024/01/29 00:32:34;;;;;;;7.30;3.20;;;;;;;;;;5123856;22;20051;-72
2024/01/29 00:35:20;;;;;;;6.95;3.38;;;;;;;;;;5116713;28;20028;-73
2024/01/29 00:38:05;;;;;;;5.13;2.65;;;;;;;;;;5116090;28;20058;-72
2024/01/29 00:40:51;;;;;;;8.43;3.42;;;;;;;;;;5116561;28;20040;-73
2024/01/29 00:43:39;;;;;;;5.40;3.17;;;;;;;;;;5116919;28;20473;-72
2024/01/29 00:46:25;;;;;;;8.13;3.17;;;;;;;;;;5115897;28;20453;-74
2024/01/29 00:49:10;;;;;;;5.97;3.25;;;;;;;;;;5117049;28;20106;-73
2024/01/29 00:51:56;;;;;;;7.10;2.60;;;;;;;;;;5115740;28;20137;-74
2024/01/29 00:54:51;;;;;;;5.88;3.22;;;;;;;;;;5086970;28;20080;-74
2024/01/29 00:57:36;;;;;;;6.47;2.78;;;;;;;;;;5116191;28;20027;-73
2024/01/29 01:00:22;;;;;;;12.02;3.30;;;;;;;;;;5100305;28;20035;-73
2024/01/29 01:03:08;;;;;;;5.35;2.80;;;;;;;;;;5100374;28;20024;-73
2024/01/29 01:05:54;;;;;;;8.32;2.88;;;;;;;;;;5100270;28;20026;-74
2024/01/29 01:08:39;;;;;;;6.97;4.20;;;;;;;;;;5116269;28;20392;-74
2024/01/29 01:11:25;;;;;;;6.00;3.15;;;;;;;;;;5101326;28;20023;-73
2024/01/29 01:14:11;;;;;;;6.53;2.78;;;;;;;;;;5114588;28;20026;-74
2024/01/29 01:16:56;;;;;;;4.63;3.00;;;;;;;;;;5115541;28;20047;-73
2024/01/29 01:19:42;;;;;;;2.97;2.28;;;;;;;;;;5088600;28;20026;-73
2024/01/29 01:22:28;;;;;;;8.95;3.63;;;;;;;;;;5099878;28;20020;-73
2024/01/29 01:25:13;;;;;;;6.38;3.10;;;;;;;;;;5101194;28;20024;-73
2024/01/29 01:27:59;;;;;;;6.53;3.58;;;;;;;;;;5115690;28;20072;-73
2024/01/29 01:30:45;;;;;;;5.75;3.10;;;;;;;;;;5115356;28;20023;-73
2024/01/29 01:33:31;;;;;;;9.82;3.53;;;;;;;;;;5115828;28;20032;-73
2024/01/29 01:36:16;;;;;;;4.55;2.80;;;;;;;;;;5086238;28;20032;-73
2024/01/29 01:39:02;;;;;;;6.55;3.30;;;;;;;;;;5115743;28;20066;-73
2024/01/29 01:41:49;;;;;;;5.95;3.55;;;;;;;;;;5086710;28;20031;-73
2024/01/29 01:44:35;;;;;;;5.68;3.35;;;;;;;;;;5099442;28;20024;-73
2024/01/29 01:47:23;;;;;;;6.63;3.58;;;;;;;;;;5114439;28;20024;-73
2024/01/29 01:50:09;;;;;;;4.05;3.33;;;;;;;;;;5100345;28;20019;-73
2024/01/29 01:52:55;;;;;;;4.93;2.75;;;;;;;;;;5114901;28;20133;-73
2024/01/29 01:55:41;;;;;;;4.40;2.78;;;;;;;;;;5114933;28;20046;-73
2024/01/29 01:58:40;;;;;;;4.20;2.70;;;;;;;;;;5115396;28;20473;-73
2024/01/29 02:01:30;;;;;;;11.90;3.25;;;;;;;;;;5099669;28;20036;-73
2024/01/29 02:04:16;;;;;;;7.80;3.55;;;;;;;;;;5115358;28;20023;-73
2024/01/29 02:07:02;;;;;;;6.07;3.28;;;;;;;;;;5115385;28;20016;-73
2024/01/29 02:09:48;;;;;;;9.35;2.97;;;;;;;;;;5113005;28;20048;-73
2024/01/29 02:12:33;;;;;;;4.28;2.90;;;;;;;;;;5116028;28;20015;-73
2024/01/29 02:15:19;;;;;;;4.88;3.20;;;;;;;;;;5100126;28;20512;-73
2024/01/29 02:18:05;;;;;;;4.38;3.65;;;;;;;;;;5100994;28;20028;-73
2024/01/29 02:20:50;;;;;;;4.22;3.58;;;;;;;;;;5115553;28;20047;-73
2024/01/29 02:23:36;;;;;;;7.53;3.22;;;;;;;;;;5097980;28;20487;-73
2024/01/29 02:26:22;;;;;;;7.10;3.15;;;;;;;;;;5099802;28;20020;-73
2024/01/29 02:29:08;;;;;;;7.38;3.78;;;;;;;;;;5115497;28;20020;-73
2024/01/29 02:31:56;;;;;;;5.88;3.28;;;;;;;;;;5115259;28;20027;-73
2024/01/29 02:34:41;;;;;;;5.40;3.25;;;;;;;;;;5099648;28;20034;-73
2024/01/29 02:37:27;;;;;;;5.63;3.40;;;;;;;;;;5100245;28;20026;-73
2024/01/29 02:40:13;;;;;;;10.27;4.15;;;;;;;;;;5099250;28;20377;-73
2024/01/29 02:42:58;;;;;;;5.80;3.83;;;;;;;;;;5098223;28;20023;-73
2024/01/29 02:45:44;;;;;;;8.40;3.38;;;;;;;;;;5114957;28;20031;-73
2024/01/29 02:48:29;;;;;;;6.00;3.17;;;;;;;;;;5114255;28;20026;-73
2024/01/29 02:51:15;;;;;;;6.43;2.78;;;;;;;;;;5114219;28;20028;-73
2024/01/29 02:54:01;;;;;;;4.50;2.95;;;;;;;;;;5099861;28;20025;-73
2024/01/29 02:56:47;;;;;;;6.75;3.13;;;;;;;;;;5114812;28;20020;-73
2024/01/29 02:59:32;;;;;;;6.22;3.83;;;;;;;;;;5099631;28;20047;-73
2024/01/29 03:02:18;;;;;;;7.68;3.20;;;;;;;;;;5098768;28;20410;-73
2024/01/29 03:05:04;;;;;;;6.57;3.05;;;;;;;;;;5096861;28;20020;-73
2024/01/29 03:07:51;;;;;;;4.75;2.95;;;;;;;;;;5098495;28;20051;-73
2024/01/29 03:10:36;;;;;;;5.32;2.85;;;;;;;;;;5113514;28;20092;-73
2024/01/29 03:13:22;;;;;;;4.80;2.97;;;;;;;;;;5099049;28;20024;-73
2024/01/29 03:16:08;;;;;;;5.47;4.30;;;;;;;;;;5112814;28;20484;-73
2024/01/29 03:18:53;;;;;;;6.55;3.10;;;;;;;;;;5113586;28;20472;-73
2024/01/29 03:21:41;;;;;;;5.00;3.33;;;;;;;;;;5096583;28;20509;-73
2024/01/29 03:24:27;;;;;;;5.00;3.30;;;;;;;;;;5108806;22;21458;-72
2024/01/29 03:27:12;;;;;;;4.63;3.35;;;;;;;;;;5101709;28;20023;-72
2024/01/29 03:29:58;;;;;;;5.25;3.00;;;;;;;;;;5117622;28;20023;-72
2024/01/29 03:32:44;;;;;;;6.00;3.22;;;;;;;;;;5102448;28;20115;-72
2024/01/29 03:35:29;;;;;;;4.57;3.67;;;;;;;;;;5116888;28;20023;-72
2024/01/29 03:38:15;;;;;;;5.07;3.20;;;;;;;;;;5117487;28;20038;-72
2024/01/29 03:41:01;;;;;;;4.65;3.28;;;;;;;;;;5117145;28;20026;-72
2024/01/29 03:43:46;;;;;;;4.95;3.08;;;;;;;;;;5117392;28;20480;-72
2024/01/29 03:46:32;;;;;;;4.50;2.95;;;;;;;;;;5117082;28;20028;-72
2024/01/29 03:49:18;;;;;;;5.82;3.15;;;;;;;;;;5116745;28;20020;-72
2024/01/29 03:52:03;;;;;;;6.22;3.78;;;;;;;;;;5117363;28;20549;-72
2024/01/29 03:54:49;;;;;;;4.15;3.15;;;;;;;;;;5116032;28;20097;-71
2024/01/29 03:57:36;;;;;;;6.18;3.83;;;;;;;;;;5116212;28;20076;-72
2024/01/29 04:00:23;;;;;;;4.32;2.83;;;;;;;;;;5116967;28;20019;-72
2024/01/29 04:03:09;;;;;;;4.68;3.33;;;;;;;;;;5117036;28;20035;-72
2024/01/29 04:05:55;;;;;;;4.35;3.55;;;;;;;;;;5116972;28;20023;-72
2024/01/29 04:08:40;;;;;;;4.05;3.47;;;;;;;;;;5115761;28;20019;-72
2024/01/29 04:11:26;;;;;;;5.68;3.75;;;;;;;;;;5116938;28;20414;-72
2024/01/29 04:14:12;;;;;;;5.95;4.05;;;;;;;;;;5116486;28;20020;-72
2024/01/29 04:16:58;;;;;;;8.05;3.45;;;;;;;;;;5116099;28;20031;-72
2024/01/29 04:19:43;;;;;;;6.22;3.42;;;;;;;;;;5101718;28;20094;-72
2024/01/29 04:22:29;;;;;;;6.03;3.20;;;;;;;;;;5117306;28;20058;-71
2024/01/29 04:25:15;;;;;;;5.22;2.97;;;;;;;;;;5115994;28;20100;-72
2024/01/29 04:28:00;;;;;;;6.10;2.83;;;;;;;;;;5114664;28;20028;-72
2024/01/29 04:30:46;;;;;;;8.48;3.15;;;;;;;;;;5116532;28;20030;-72
2024/01/29 04:33:31;;;;;;;7.22;3.35;;;;;;;;;;5115834;28;20080;-72
2024/01/29 04:36:17;;;;;;;9.18;3.88;;;;;;;;;;5115763;28;20455;-72
2024/01/29 04:39:03;;;;;;;6.47;3.42;;;;;;;;;;5115908;28;20023;-72
2024/01/29 04:41:49;;;;;;;6.15;3.58;;;;;;;;;;5115336;28;20032;-72
2024/01/29 04:44:34;;;;;;;8.05;3.97;;;;;;;;;;5115858;28;20397;-72
2024/01/29 04:47:20;;;;;;;7.55;3.75;;;;;;;;;;5116429;28;20080;-72
2024/01/29 04:50:06;;;;;;;6.05;3.38;;;;;;;;;;5116149;28;20019;-72
2024/01/29 04:52:52;;;;;;;4.15;3.15;;;;;;;;;;5114970;28;20058;-72
2024/01/29 04:55:37;;;;;;;7.97;4.00;;;;;;;;;;5115066;28;20055;-72
2024/01/29 04:58:23;;;;;;;9.38;4.03;;;;;;;;;;5115618;28;20020;-71
2024/01/29 05:01:09;;;;;;;5.10;3.55;;;;;;;;;;5115571;28;20106;-72
2024/01/29 05:03:56;;;;;;;8.05;3.88;;;;;;;;;;5115817;28;20086;-72
2024/01/29 05:06:41;;;;;;;5.00;3.42;;;;;;;;;;5115603;28;20029;-72
2024/01/29 05:09:27;;;;;;;5.97;2.83;;;;;;;;;;5115729;28;20031;-72
2024/01/29 05:12:12;;;;;;;7.07;4.20;;;;;;;;;;5114727;28;20110;-72
2024/01/29 05:14:58;;;;;;;4.80;3.28;;;;;;;;;;5100079;28;20019;-72
2024/01/29 05:17:44;;;;;;;5.85;3.55;;;;;;;;;;5115002;28;20051;-72
2024/01/29 05:20:32;;;;;;;5.50;2.70;;;;;;;;;;5114576;28;20026;-72
2024/01/29 05:23:18;;;;;;;5.60;3.10;;;;;;;;;;5116077;28;20035;-72
2024/01/29 05:26:04;;;;;;;4.70;3.47;;;;;;;;;;5114727;28;20477;-72
2024/01/29 05:28:50;;;;;;;5.65;3.05;;;;;;;;;;5099511;28;20027;-72
2024/01/29 05:31:35;;;;;;;7.85;3.53;;;;;;;;;;5115968;28;20403;-72
2024/01/29 05:34:21;;;;;;;6.50;3.38;;;;;;;;;;5099603;28;20035;-72
2024/01/29 05:37:06;;;;;;;8.52;3.45;;;;;;;;;;5115017;28;20031;-72
2024/01/29 05:39:52;;;;;;;6.60;3.47;;;;;;;;;;5114131;28;20085;-72
2024/01/29 05:42:38;;;;;;;6.63;4.13;;;;;;;;;;5114993;28;20524;-72
2024/01/29 05:45:23;;;;;;;4.70;2.92;;;;;;;;;;5115323;28;20020;-72
2024/01/29 05:48:09;;;;;;;5.00;3.10;;;;;;;;;;5115025;28;20553;-72
2024/01/29 05:50:55;;;;;;;6.45;2.72;;;;;;;;;;5113891;28;20027;-72
2024/01/29 05:53:40;;;;;;;5.45;3.63;;;;;;;;;;5114633;28;20027;-72
2024/01/29 05:56:26;;;;;;;12.68;3.72;;;;;;;;;;5115440;28;20083;-72
2024/01/29 05:59:12;;;;;;;6.00;3.35;;;;;;;;;;5113821;28;20054;-72
2024/01/29 06:01:57;;;;;;;6.95;3.70;;;;;;;;;;5114598;28;20054;-72
2024/01/29 06:04:43;;;;;;;7.72;3.53;;;;;;;;;;5114394;28;20111;-72
2024/01/29 06:07:28;;;;;;;5.47;3.78;;;;;;;;;;5114452;28;20080;-72
2024/01/29 06:10:14;;;;;;;7.32;3.63;;;;;;;;;;5114458;28;20036;-72
2024/01/29 06:13:00;;;;;;;7.40;3.90;;;;;;;;;;5113667;28;20515;-73
2024/01/29 06:15:45;;;;;;;6.38;3.40;;;;;;;;;;5114572;28;20028;-72
2024/01/29 06:18:31;;;;;;;6.18;4.25;;;;;;;;;;5113917;28;20024;-73
2024/01/29 06:21:17;;;;;;;6.55;5.07;;;;;;;;;;5114428;28;20374;-72
2024/01/29 06:24:03;;;;;;;8.32;3.75;;;;;;;;;;5114277;28;20407;-72
2024/01/29 06:26:49;;;;;;;5.50;3.40;;;;;;;;;;5112761;28;20032;-72
2024/01/29 06:29:34;;;;;;;7.90;5.70;;;;;;;;;;5114103;28;20050;-72
2024/01/29 06:32:20;;;;;;;7.90;4.53;;;;;;;;;;5114226;28;20023;-72
2024/01/29 06:35:06;;;;;;;5.32;3.55;;;;;;;;;;5096812;28;20035;-73
2024/01/29 06:37:51;;;;;;;6.53;4.30;;;;;;;;;;5072474;28;20031;-72
2024/01/29 06:40:37;;;;;;;8.95;4.18;;;;;;;;;;5112673;28;20434;-73
2024/01/29 06:43:23;;;;;;;7.10;3.97;;;;;;;;;;5113296;28;20027;-73
2024/01/29 06:46:08;;;;;;;8.02;4.50;;;;;;;;;;5113510;28;20019;-72
2024/01/29 06:48:54;;;;;;;9.05;4.32;;;;;;;;;;5097609;28;20072;-73
2024/01/29 06:51:39;;;;;;;8.18;4.40;;;;;;;;;;5113042;28;20480;-72
2024/01/29 06:54:25;;;;;;;10.00;4.50;;;;;;;;;;5088883;28;20420;-73
2024/01/29 06:57:11;;;;;;;7.38;4.50;;;;;;;;;;5093459;28;20052;-72
2024/01/29 06:59:56;;;;;;;6.45;3.67;;;;;;;;;;5102094;28;20026;-73
2024/01/29 07:02:42;;;;;;;20.50;10.52;;;;;;;;;;5112203;28;20035;-72
2024/01/29 07:05:28;;;;;;;7.82;5.70;;;;;;;;;;5108992;28;20435;-72
2024/01/29 07:08:13;;;;;;;9.85;5.38;;;;;;;;;;5112531;28;20020;-73
2024/01/29 07:10:59;;;;;;;7.25;3.95;;;;;;;;;;5097090;28;20020;-72
2024/01/29 07:13:45;;;;;;;26.50;11.07;;;;;;;;;;5091706;28;20040;-72
2024/01/29 07:16:30;;;;;;;30.58;22.40;;;;;;;;;;5109185;28;20027;-72
2024/01/29 07:19:26;;;;;;;8.48;5.50;;;;;;;;;;5112700;28;20429;-72
2024/01/29 07:22:18;;;;;;;7.28;4.05;;;;;;;;;;5097905;28;20460;-72
2024/01/29 07:25:05;;;;;;;9.20;3.63;;;;;;;;;;5110935;28;20038;-73
2024/01/29 07:27:51;;;;;;;7.72;4.20;;;;;;;;;;5097154;28;20099;-73
2024/01/29 07:30:36;;;;;;;30.27;15.10;;;;;;;;;;5112374;28;20372;-72
2024/01/29 07:33:22;;;;;;;8.15;5.32;;;;;;;;;;5112880;28;20023;-73
2024/01/29 07:36:08;;;;;;;6.57;3.63;;;;;;;;;;5112448;28;20034;-73
2024/01/29 07:38:53;;;;;;;9.00;5.03;;;;;;;;;;5108011;28;20012;-73
2024/01/29 07:41:39;;;;;;;8.95;4.38;;;;;;;;;;5078051;28;20093;-72
2024/01/29 07:44:25;;;;;;;6.10;3.60;;;;;;;;;;5080945;28;20023;-72
2024/01/29 07:47:11;;;;;;;7.30;3.80;;;;;;;;;;5111918;28;20022;-72
2024/01/29 07:49:56;;;;;;;7.95;4.68;;;;;;;;;;5096502;28;20396;-72
2024/01/29 07:52:42;;;;;;;11.35;4.47;;;;;;;;;;5112279;28;20065;-72
2024/01/29 07:55:28;;;;;;;10.30;6.68;;;;;;;;;;5098242;28;20023;-72
2024/01/29 07:58:13;;;;;;;7.60;4.88;;;;;;;;;;5112158;28;20053;-72
2024/01/29 08:00:59;;;;;;;5.47;3.72;;;;;;;;;;5111715;28;20103;-72
2024/01/29 08:03:45;;;;;;;5.15;4.03;;;;;;;;;;5096681;28;20015;-71
2024/01/29 08:06:32;;;;;;;5.55;4.10;;;;;;;;;;5116516;28;20072;-71
2024/01/29 08:09:18;;;;;;;11.80;5.65;;;;;;;;;;5099579;28;20076;-72
2024/01/29 08:12:05;;;;;;;9.23;4.55;;;;;;;;;;5115980;28;20027;-71
2024/01/29 08:14:50;;;;;;;9.25;4.32;;;;;;;;;;5103545;28;20027;-72
2024/01/29 08:17:36;;;;;;;9.32;4.07;;;;;;;;;;5093365;28;20020;-73
2024/01/29 08:20:22;;;;;;;6.32;4.03;;;;;;;;;;5109257;28;20016;-72
2024/01/29 08:23:08;;;;;;;8.10;3.63;;;;;;;;;;5115087;28;20066;-72
2024/01/29 08:25:54;;;;;;;7.65;4.65;;;;;;;;;;5100496;28;20031;-72
2024/01/29 08:28:39;;;;;;;8.18;5.07;;;;;;;;;;5086697;28;20552;-72
2024/01/29 08:31:25;;;;;;;10.57;5.35;;;;;;;;;;5114509;28;20435;-74
2024/01/29 08:34:11;;;;;;;7.43;4.30;;;;;;;;;;5115218;28;20027;-72
2024/01/29 08:36:57;;;;;;;9.52;4.38;;;;;;;;;;5115525;28;20032;-73
2024/01/29 08:39:43;;;;;;;7.72;4.30;;;;;;;;;;5099964;28;20016;-72
2024/01/29 08:42:29;;;;;;;7.07;4.63;;;;;;;;;;5114857;28;20145;-73
2024/01/29 08:45:16;;;;;;;6.85;4.32;;;;;;;;;;5115566;28;20015;-73
2024/01/29 08:48:03;;;;;;;8.05;4.35;;;;;;;;;;5099685;28;20030;-73
2024/01/29 08:50:49;;;;;;;11.43;4.65;;;;;;;;;;5113309;28;20022;-72
2024/01/29 08:53:37;;;;;;;8.73;4.05;;;;;;;;;;5100494;28;20119;-72
2024/01/29 08:56:51;;;;;;;8.90;6.38;;;;;;;;;;5090570;28;20432;-71
2024/01/29 08:59:38;;;;;;;6.40;5.22;;;;;;;;;;5089159;28;20036;-71
2024/01/29 09:02:28;;;;;;;9.02;6.00;;;;;;;;;;5088277;28;20016;-71
2024/01/29 09:05:13;;;;;;;5.57;4.28;;;;;;;;;;5088522;28;20055;-71
2024/01/29 09:07:59;;;;;;;13.55;6.80;;;;;;;;;;5088768;28;20032;-71
2024/01/29 09:10:45;;;;;;;13.15;5.65;;;;;;;;;;5088999;28;20020;-71
2024/01/29 09:13:31;;;;;;;6.95;5.20;;;;;;;;;;5088030;28;20029;-72
2024/01/29 09:16:17;;;;;;;7.65;5.75;;;;;;;;;;5088910;28;20025;-71
2024/01/29 09:19:02;;;;;;;24.65;11.95;;;;;;;;;;5088880;28;20503;-71
2024/01/29 09:21:48;;;;;;;8.90;5.82;;;;;;;;;;5088982;28;20056;-71
2024/01/29 09:24:34;;;;;;;10.30;5.80;;;;;;;;;;5087671;28;20040;-71
2024/01/29 09:27:20;;;;;;;9.20;5.65;;;;;;;;;;5088942;28;20020;-71
2024/01/29 09:30:06;;;;;;;7.10;5.30;;;;;;;;;;5088927;28;20054;-71
2024/01/29 09:32:51;;;;;;;8.13;5.57;;;;;;;;;;5089198;28;20021;-72
2024/01/29 09:35:37;;;;;;;9.80;5.45;;;;;;;;;;5088936;28;20028;-72
2024/01/29 09:38:23;;;;;;;11.00;5.18;;;;;;;;;;5088699;28;20032;-72
2024/01/29 09:41:08;;;;;;;9.73;6.13;;;;;;;;;;5088298;28;20031;-72
2024/01/29 09:43:56;;;;;;;7.30;5.03;;;;;;;;;;5088202;28;20024;-71
2024/01/29 09:46:43;;;;;;;8.70;4.97;;;;;;;;;;5086997;28;20016;-71
2024/01/29 09:49:29;;;;;;;8.68;5.82;;;;;;;;;;5088506;28;20031;-72
2024/01/29 09:52:16;;;;;;;10.02;5.25;;;;;;;;;;5074580;28;20028;-72
2024/01/29 09:55:02;;;;;;;8.13;5.70;;;;;;;;;;5087409;28;20036;-71
2024/01/29 09:57:48;;;;;;;9.70;6.05;;;;;;;;;;5086709;28;20056;-72
2024/01/29 10:00:34;;;;;;;14.68;6.65;;;;;;;;;;5088555;28;20498;-72
2024/01/29 10:03:30;;;;;;;9.48;6.20;;;;;;;;;;5087851;28;20024;-72
2024/01/29 10:06:16;;;;;;;13.07;5.93;;;;;;;;;;5084583;28;20017;-72
2024/01/29 10:09:02;;;;;;;8.93;5.18;;;;;;;;;;5073629;28;20462;-72
2024/01/29 10:11:49;;;;;;;12.45;6.32;;;;;;;;;;5074586;28;20035;-72
2024/01/29 10:14:35;;;;;;;11.93;7.97;;;;;;;;;;5073415;28;20059;-71
2024/01/29 10:17:21;;;;;;;11.98;8.98;;;;;;;;;;5074322;28;20104;-71
2024/01/29 10:20:27;;;;;;;11.80;6.65;;;;;;;;;;5073432;28;20036;-71
2024/01/29 10:23:13;;;;;;;8.40;6.82;;;;;;;;;;5049006;28;20499;-71
2024/01/29 10:26:00;;;;;;;9.57;5.60;;;;;;;;;;5043358;28;20449;-72
2024/01/29 10:28:45;;;;;;;15.23;7.15;;;;;;;;;;5037236;28;20036;-72
2024/01/29 10:31:32;;;;;;;9.68;6.53;;;;;;;;;;5040893;28;20113;-72
2024/01/29 10:34:17;;;;;;;10.45;6.43;;;;;;;;;;5044741;28;20061;-72
2024/01/29 10:37:05;;;;;;;13.65;6.80;;;;;;;;;;5039936;28;20037;-71
2024/01/29 10:39:55;;;;;;;11.10;6.80;;;;;;;;;;5042713;28;20032;-71
2024/01/29 10:42:42;;;;;;;13.52;6.43;;;;;;;;;;5039928;28;20044;-72
2024/01/29 10:45:28;;;;;;;11.60;6.68;;;;;;;;;;5040930;28;20104;-72
2024/01/29 10:48:20;;;;;;;9.40;7.00;;;;;;;;;;5044716;28;20026;-72
2024/01/29 10:51:06;;;;;;;16.13;7.50;;;;;;;;;;5050969;28;20166;-73
2024/01/29 10:53:53;;;;;;;13.43;7.47;;;;;;;;;;5049498;28;20025;-72
2024/01/29 10:56:39;;;;;;;10.35;7.57;;;;;;;;;;5040579;28;20036;-71
2024/01/29 10:59:26;;;;;;;10.25;6.03;;;;;;;;;;5046226;28;20393;-71
2024/01/29 11:02:15;;;;;;;11.68;7.50;;;;;;;;;;5044120;28;20029;-73
2024/01/29 11:05:01;;;;;;;9.98;7.20;;;;;;;;;;5053299;28;20025;-72
2024/01/29 11:07:48;;;;;;;10.45;6.43;;;;;;;;;;5042470;28;20036;-72
2024/01/29 11:10:34;;;;;;;11.50;7.65;;;;;;;;;;5044141;28;20030;-71
2024/01/29 11:13:20;;;;;;;12.80;7.50;;;;;;;;;;5030271;28;20087;-72
2024/01/29 11:16:06;;;;;;;11.65;7.40;;;;;;;;;;5039550;28;20463;-72
2024/01/29 11:18:52;;;;;;;14.57;6.95;;;;;;;;;;5041338;28;20398;-72
2024/01/29 11:21:48;;;;;;;12.32;6.82;;;;;;;;;;5038099;28;20025;-72
2024/01/29 11:24:33;;;;;;;16.52;8.05;;;;;;;;;;5044317;28;20037;-72
2024/01/29 11:27:19;;;;;;;12.55;7.70;;;;;;;;;;5044215;28;20053;-72
2024/01/29 11:30:31;;;;;;;12.45;7.68;;;;;;;;;;5036707;28;20019;-72
2024/01/29 11:33:18;;;;;;;12.52;7.43;;;;;;;;;;5038956;28;20028;-72
2024/01/29 11:36:11;;;;;;;14.25;8.02;;;;;;;;;;5047035;28;20025;-72
2024/01/29 11:39:04;;;;;;;14.00;7.47;;;;;;;;;;5042405;28;20119;-72
2024/01/29 11:41:50;;;;;;;11.23;7.30;;;;;;;;;;5040500;28;20032;-72
2024/01/29 11:44:37;;;;;;;10.15;7.50;;;;;;;;;;5046142;28;20032;-72
2024/01/29 11:47:24;;;;;;;11.88;8.23;;;;;;;;;;5033962;28;20060;-72
2024/01/29 11:50:09;;;;;;;15.27;8.55;;;;;;;;;;5037293;28;20036;-72
2024/01/29 11:52:55;;;;;;;15.45;8.43;;;;;;;;;;5041287;28;20524;-72
2024/01/29 11:55:41;;;;;;;9.70;7.43;;;;;;;;;;5043476;28;20036;-72
2024/01/29 11:58:27;;;;;;;13.00;9.10;;;;;;;;;;5042042;28;20549;-73
2024/01/29 12:01:13;;;;;;;11.55;7.30;;;;;;;;;;5042016;28;20032;-73
2024/01/29 12:03:59;;;;;;;11.00;7.53;;;;;;;;;;5040805;28;20025;-72
2024/01/29 12:06:45;;;;;;;10.93;8.00;;;;;;;;;;5037198;28;20037;-73
2024/01/29 12:09:32;;;;;;;14.68;6.90;;;;;;;;;;5032655;28;20088;-73
2024/01/29 12:12:18;;;;;;;16.38;8.93;;;;;;;;;;5041801;28;20095;-73
2024/01/29 12:15:06;;;;;;;15.63;8.27;;;;;;;;;;5036790;28;20021;-73
2024/01/29 12:17:52;;;;;;;13.43;7.47;;;;;;;;;;5043577;28;20079;-72
2024/01/29 12:20:37;;;;;;;13.77;8.43;;;;;;;;;;5038258;28;20025;-73
2024/01/29 12:23:23;;;;;;;13.73;8.52;;;;;;;;;;5048322;28;20116;-73
2024/01/29 12:26:11;;;;;;;15.75;8.35;;;;;;;;;;5035075;28;20022;-73
2024/01/29 12:28:58;;;;;;;15.85;7.07;;;;;;;;;;5036695;28;20480;-73
2024/01/29 12:31:43;;;;;;;16.17;9.30;;;;;;;;;;5044149;28;20034;-73
2024/01/29 12:34:29;;;;;;;12.95;8.00;;;;;;;;;;5053443;28;20118;-71
2024/01/29 12:37:21;;;;;;;14.25;8.25;;;;;;;;;;5071619;28;20551;-71
2024/01/29 12:40:15;;;;;;;11.40;7.65;;;;;;;;;;5070850;28;20021;-71
2024/01/29 12:43:04;;;;;;;19.40;8.57;;;;;;;;;;5071935;28;20052;-71
2024/01/29 12:45:49;;;;;;;14.32;8.57;;;;;;;;;;5056458;28;20024;-71
2024/01/29 12:48:35;;;;;;;17.75;9.95;;;;;;;;;;5071811;28;20024;-71
2024/01/29 12:51:20;;;;;;;12.82;9.63;;;;;;;;;;5071531;28;20165;-71
2024/01/29 12:54:09;;;;;;;17.05;9.10;;;;;;;;;;5071748;28;20433;-71
2024/01/29 12:56:55;;;;;;;15.65;9.38;;;;;;;;;;5071390;28;20111;-71
2024/01/29 12:59:40;;;;;;;15.68;10.02;;;;;;;;;;5071625;28;20417;-71
2024/01/29 13:02:26;;;;;;;16.80;9.15;;;;;;;;;;5047786;28;20070;-71
2024/01/29 13:05:12;;;;;;;19.77;10.00;;;;;;;;;;5071517;28;20012;-71
2024/01/29 13:07:57;;;;;;;17.55;10.13;;;;;;;;;;5071827;28;20028;-72
2024/01/29 13:10:43;;;;;;;14.68;9.20;;;;;;;;;;5071234;28;20060;-71
2024/01/29 13:13:29;;;;;;;16.02;10.00;;;;;;;;;;5071926;28;20017;-72
2024/01/29 13:16:14;;;;;;;18.17;10.55;;;;;;;;;;5070471;28;20025;-71
2024/01/29 13:19:00;;;;;;;17.83;10.70;;;;;;;;;;5071817;28;20024;-71
2024/01/29 13:21:45;;;;;;;18.30;11.27;;;;;;;;;;5071534;28;20021;-72
2024/01/29 13:24:31;;;;;;;21.65;9.88;;;;;;;;;;5071567;28;20021;-71
2024/01/29 13:27:18;;;;;;;20.30;10.65;;;;;;;;;;5070700;28;20513;-72
2024/01/29 13:30:05;;;;;;;16.10;9.90;;;;;;;;;;5070731;28;20566;-72
2024/01/29 13:32:50;;;;;;;20.60;11.25;;;;;;;;;;5066064;28;20498;-72
2024/01/29 13:35:36;;;;;;;15.30;8.70;;;;;;;;;;5047504;28;20454;-71
2024/01/29 13:38:21;;;;;;;19.45;10.55;;;;;;;;;;5040309;28;20021;-71
2024/01/29 13:41:09;;;;;;;17.58;10.48;;;;;;;;;;5043065;28;20021;-71
2024/01/29 13:43:57;;;;;;;14.80;10.35;;;;;;;;;;5045044;28;20029;-71
2024/01/29 13:46:42;;;;;;;24.42;10.65;;;;;;;;;;5041759;28;20029;-72
2024/01/29 13:49:28;;;;;;;15.90;10.15;;;;;;;;;;5047832;28;20091;-71
2024/01/29 13:52:13;;;;;;;17.92;10.55;;;;;;;;;;5059667;28;20033;-71
2024/01/29 13:54:59;;;;;;;19.77;10.50;;;;;;;;;;5073362;28;20457;-71
2024/01/29 13:57:45;;;;;;;20.95;10.70;;;;;;;;;;5073757;28;20031;-71
2024/01/29 14:00:30;;;;;;;23.65;11.50;;;;;;;;;;5048619;28;20012;-71
2024/01/29 14:03:16;;;;;;;16.65;9.95;;;;;;;;;;5073999;28;20501;-71
2024/01/29 14:06:03;;;;;;;22.85;11.35;;;;;;;;;;5074392;28;20462;-71
2024/01/29 14:08:48;;;;;;;19.50;10.60;;;;;;;;;;5051614;28;20037;-71
2024/01/29 14:11:34;;;;;;;18.58;9.52;;;;;;;;;;5073566;28;20081;-71
2024/01/29 14:14:19;;;;;;;20.27;10.80;;;;;;;;;;5073693;28;20522;-71
2024/01/29 14:17:05;;;;;;;22.85;11.52;;;;;;;;;;5073710;28;20020;-72
2024/01/29 14:19:51;;;;;;;19.50;11.43;;;;;;;;;;5074715;28;20063;-71
2024/01/29 14:22:36;;;;;;;21.75;10.25;;;;;;;;;;5052357;28;20020;-71
2024/01/29 14:25:22;;;;;;;19.08;10.93;;;;;;;;;;5074141;28;20013;-72
2024/01/29 14:28:09;;;;;;;23.90;10.82;;;;;;;;;;5073831;28;20398;-72
2024/01/29 14:30:54;;;;;;;21.60;11.02;;;;;;;;;;5073831;28;20021;-72
2024/01/29 14:33:40;;;;;;;25.80;12.15;;;;;;;;;;5074407;28;20025;-72
2024/01/29 14:36:26;;;;;;;32.50;13.50;;;;;;;;;;5073897;28;20031;-73
2024/01/29 14:39:14;;;;;;;31.80;13.05;;;;;;;;;;5072499;28;20032;-73
2024/01/29 14:42:00;;;;;;;27.30;12.65;;;;;;;;;;5074342;28;20024;-73
2024/01/29 14:44:46;;;;;;;32.10;14.23;;;;;;;;;;5073125;28;20033;-73
2024/01/29 14:47:31;;;;;;;28.55;14.25;;;;;;;;;;5073478;28;20108;-73
2024/01/29 14:50:17;;;;;;;35.53;14.38;;;;;;;;;;5073592;28;20032;-73
2024/01/29 14:53:03;;;;;;;30.60;15.25;;;;;;;;;;5073182;28;20108;-73
2024/01/29 14:55:48;;;;;;;29.60;13.15;;;;;;;;;;5074134;28;20033;-73
2024/01/29 14:58:34;;;;;;;27.50;13.07;;;;;;;;;;5073912;28;20032;-73
2024/01/29 15:01:20;;;;;;;45.47;15.00;;;;;;;;;;5073438;28;20035;-73
2024/01/29 15:04:11;;;;;;;43.97;15.35;;;;;;;;;;5034482;28;20030;-73
2024/01/29 15:06:56;;;;;;;62.00;17.23;;;;;;;;;;5060262;28;20467;-73
2024/01/29 15:09:42;;;;;;;49.15;14.48;;;;;;;;;;5068129;28;20381;-74
2024/01/29 15:12:28;;;;;;;49.90;15.98;;;;;;;;;;5053589;28;20083;-73
2024/01/29 15:15:14;;;;;;;49.47;15.48;;;;;;;;;;5057931;28;20027;-73
2024/01/29 15:18:00;;;;;;;56.95;17.10;;;;;;;;;;5072970;28;20159;-73
2024/01/29 15:20:45;;;;;;;50.38;16.75;;;;;;;;;;5073105;28;20413;-73
2024/01/29 15:23:31;;;;;;;50.65;15.80;;;;;;;;;;5072718;28;20097;-73
2024/01/29 15:26:16;;;;;;;47.30;15.10;;;;;;;;;;5072005;28;20021;-73
2024/01/29 15:29:02;;;;;;;60.55;16.52;;;;;;;;;;5072895;28;20401;-73
2024/01/29 15:31:48;;;;;;;44.65;15.38;;;;;;;;;;5073543;28;20028;-73
2024/01/29 15:34:36;;;;;;;51.30;16.30;;;;;;;;;;5072163;28;20040;-73
2024/01/29 15:37:22;;;;;;;52.17;15.80;;;;;;;;;;5071869;28;20039;-73
2024/01/29 15:40:09;;;;;;;51.22;15.13;;;;;;;;;;5072836;28;20024;-72
2024/01/29 15:42:58;;;;;;;54.05;17.25;;;;;;;;;;5072444;28;20024;-73
2024/01/29 15:45:46;;;;;;;46.58;16.75;;;;;;;;;;5072348;28;20019;-72
2024/01/29 15:48:32;;;;;;;47.10;15.75;;;;;;;;;;5072857;28;20101;-73
2024/01/29 15:51:17;;;;;;;33.33;16.02;;;;;;;;;;5072629;28;20069;-73
2024/01/29 15:54:03;;;;;;;46.38;17.25;;;;;;;;;;5065778;28;20029;-73
2024/01/29 15:56:49;;;;;;;43.95;14.82;;;;;;;;;;5058009;28;20375;-73
2024/01/29 15:59:35;;;;;;;49.15;16.30;;;;;;;;;;5072648;28;20081;-72
2024/01/29 16:02:20;;;;;;;42.60;16.05;;;;;;;;;;5071503;28;20101;-73
2024/01/29 16:05:06;;;;;;;45.22;16.80;;;;;;;;;;5070980;28;20020;-73
2024/01/29 16:07:52;;;;;;;46.85;17.27;;;;;;;;;;5072365;28;20020;-73
2024/01/29 16:10:38;;;;;;;49.40;16.63;;;;;;;;;;5072387;28;20024;-74
2024/01/29 16:13:23;;;;;;;42.30;18.60;;;;;;;;;;5071360;28;20477;-73
2024/01/29 16:16:10;;;;;;;65.30;18.60;;;;;;;;;;5072369;28;20024;-72
2024/01/29 16:18:56;;;;;;;48.08;17.52;;;;;;;;;;5072200;28;20104;-73
2024/01/29 16:21:42;;;;;;;41.40;16.67;;;;;;;;;;5071873;28;20087;-73
2024/01/29 16:24:27;;;;;;;61.13;18.00;;;;;;;;;;5071800;28;20024;-73
2024/01/29 16:27:13;;;;;;;55.92;16.00;;;;;;;;;;5072672;28;20034;-73
2024/01/29 16:29:59;;;;;;;55.03;18.20;;;;;;;;;;5032806;28;20027;-74